Data for 12/05/2013

Time Sea-Level Adjusted Pressure Absolute Pressure Temperature Relative Humidity Dew Point   
(mb) (inHg) (mb) (inHg) (C) (F) (%) (C) (F)
00:05 1020 30.12 849 25.07 -22.6 -8.7 77 -25.5 -14
00:10 1020 30.12 849 25.07 -22.8 -9 76 -25.8 -14.5
00:15 1020 30.12 849 25.07 -22.8 -9.1 77 -25.8 -14.5
00:20 1020 30.12 849 25.07 -22.8 -9 77 -25.8 -14.4
00:25 1020 30.12 849 25.07 -22.7 -8.8 77 -25.7 -14.3
00:30 1020 30.12 849 25.07 -22.7 -8.8 77 -25.7 -14.3
00:35 1020 30.12 849 25.07 -22.7 -8.8 78 -25.6 -14.1
00:40 1020 30.12 849 25.07 -22.6 -8.7 77 -25.6 -14
00:45 1020 30.12 849 25.07 -22.6 -8.6 77 -25.6 -14
00:50 1020 30.12 849 25.07 -22.6 -8.6 77 -25.6 -14.1
00:55 1020 30.12 849 25.07 -22.4 -8.4 76 -25.5 -13.9
01:00 1019 30.09 849 25.07 -22.4 -8.3 77 -25.4 -13.7
01:05 1019 30.09 849 25.07 -22.4 -8.3 76 -25.5 -14
01:10 1019 30.09 849 25.07 -22.4 -8.4 75 -25.7 -14.2
01:15 1019 30.09 848 25.04 -22.6 -8.6 76 -25.7 -14.3
01:20 1019 30.09 848 25.04 -22.6 -8.7 76 -25.7 -14.3
01:25 1019 30.09 848 25.04 -22.6 -8.7 74 -26 -14.8
01:30 1019 30.09 848 25.04 -22.7 -8.8 76 -25.8 -14.4
01:35 1019 30.09 848 25.04 -22.8 -9 77 -25.7 -14.3
01:40 1019 30.09 848 25.04 -22.8 -9 77 -25.8 -14.5
01:45 1019 30.09 848 25.04 -22.9 -9.2 77 -26 -14.7
01:50 1019 30.09 848 25.04 -23 -9.3 75 -26.2 -15.1
01:55 1019 30.09 848 25.04 -23.1 -9.5 76 -26.2 -15.2
02:00 1019 30.09 848 25.04 -23 -9.4 76 -26.1 -15.1
02:05 1019 30.09 848 25.04 -23.1 -9.6 76 -26.3 -15.3
02:10 1019 30.09 848 25.04 -23.3 -9.9 76 -26.4 -15.6
02:15 1019 30.09 848 25.04 -23.5 -10.3 77 -26.6 -15.8
02:20 1019 30.09 848 25.04 -23.6 -10.4 76 -26.6 -16
02:25 1019 30.09 848 25.04 -23.6 -10.5 77 -26.7 -16
02:30 1019 30.09 848 25.04 -23.7 -10.6 77 -26.6 -16
02:35 1019 30.09 848 25.04 -23.6 -10.5 76 -26.7 -16
02:40 1019 30.09 848 25.04 -23.8 -10.9 76 -26.9 -16.4
02:45 1019 30.09 848 25.04 -23.9 -11 77 -26.9 -16.5
02:50 1019 30.09 848 25.04 -23.9 -11 76 -27 -16.6
02:55 1019 30.09 848 25.04 -24 -11.1 76 -27.1 -16.7
03:00 1019 30.09 848 25.04 -24.1 -11.4 77 -27.1 -16.8
03:05 1019 30.09 848 25.04 -24.1 -11.4 77 -27.1 -16.8
03:10 1019 30.09 848 25.04 -24.1 -11.3 76 -27.1 -16.8
03:15 1019 30.09 848 25.04 -24.1 -11.4 76 -27.2 -16.9
03:20 1019 30.09 848 25.04 -24.2 -11.5 76 -27.2 -17
03:25 1019 30.09 848 25.04 -24.2 -11.5 76 -27.3 -17.1
03:30 1019 30.09 848 25.04 -24.2 -11.6 76 -27.3 -17.2
03:35 1019 30.09 848 25.04 -24.3 -11.7 76 -27.4 -17.4
03:40 1019 30.09 848 25.04 -24.4 -11.9 76 -27.5 -17.6
03:45 1018 30.06 848 25.04 -24.4 -11.8 77 -27.4 -17.2
03:50 1018 30.06 848 25.04 -24.1 -11.4 76 -27.2 -17
03:55 1019 30.09 848 25.04 -24 -11.2 76 -27.1 -16.9
04:00 1019 30.09 848 25.04 -23.9 -11 76 -27.1 -16.7
04:05 1019 30.09 848 25.04 -23.8 -10.9 75 -27.1 -16.8
04:10 1019 30.09 848 25.04 -23.9 -11 75 -27.2 -16.9
04:15 1019 30.09 848 25.04 -23.9 -11.1 75 -27.2 -17
04:20 1018 30.06 848 25.04 -24.1 -11.3 74 -27.4 -17.4
04:25 1018 30.06 848 25.04 -24.3 -11.7 75 -27.5 -17.6
04:30 1018 30.06 848 25.04 -24.4 -12 75 -27.6 -17.7
04:35 1018 30.06 848 25.04 -24.4 -11.9 75 -27.6 -17.6
04:40 1018 30.06 848 25.04 -24.3 -11.8 75 -27.5 -17.6
04:45 1018 30.06 848 25.04 -24.3 -11.7 76 -27.4 -17.3
04:50 1018 30.06 848 25.04 -24 -11.2 76 -27.1 -16.8
04:55 1018 30.06 848 25.04 -23.9 -11 76 -27 -16.6
05:00 1018 30.06 848 25.04 -23.8 -10.8 75 -27 -16.7
05:05 1018 30.06 848 25.04 -23.7 -10.6 75 -26.9 -16.5
05:10 1018 30.06 848 25.04 -23.6 -10.5 75 -26.9 -16.4
05:15 1018 30.06 848 25.04 -23.8 -10.8 74 -27.1 -16.8
05:20 1018 30.06 847 25.01 -23.9 -11 75 -27.2 -17
05:25 1018 30.06 847 25.01 -24.1 -11.4 74 -27.5 -17.4
05:30 1018 30.06 848 25.04 -24.3 -11.8 75 -27.6 -17.7
05:35 1018 30.06 848 25.04 -24.5 -12 75 -27.7 -17.9
05:40 1018 30.06 848 25.04 -24.4 -12 75 -27.7 -17.9
05:45 1018 30.06 848 25.04 -24.5 -12 75 -27.7 -17.9
05:50 1018 30.06 848 25.04 -24.6 -12.2 76 -27.6 -17.8
05:55 1018 30.06 848 25.04 -24.3 -11.8 76 -27.4 -17.3
06:00 1018 30.06 848 25.04 -24.2 -11.6 76 -27.3 -17.2
06:05 1018 30.06 848 25.04 -24.3 -11.7 75 -27.4 -17.4
06:10 1018 30.06 848 25.04 -24.3 -11.8 75 -27.6 -17.7
06:15 1018 30.06 848 25.04 -24.7 -12.4 75 -27.9 -18.2
06:20 1018 30.06 848 25.04 -24.9 -12.8 76 -28 -18.4
06:25 1018 30.06 848 25.04 -25 -12.9 76 -28 -18.4
06:30 1018 30.06 847 25.01 -24.8 -12.6 75 -28 -18.4
06:35 1018 30.06 847 25.01 -25 -13 74 -28.3 -18.9
06:40 1018 30.06 847 25.01 -25.3 -13.5 75 -28.5 -19.3
06:45 1018 30.06 847 25.01 -25.4 -13.7 75 -28.7 -19.6
06:50 1018 30.06 847 25.01 -25.6 -14 75 -28.8 -19.9
06:55 1018 30.06 847 25.01 -25.6 -14 75 -28.8 -19.8
07:00 1018 30.06 847 25.01 -25.6 -14.2 75 -28.9 -20
07:05 1018 30.06 847 25.01 -25.7 -14.2 75 -28.9 -20.1
07:10 1018 30.06 847 25.01 -25.6 -14.1 75 -28.8 -19.9
07:15 1018 30.06 847 25.01 -25.5 -13.9 75 -28.7 -19.6
07:20 1018 30.06 847 25.01 -25.4 -13.7 75 -28.6 -19.4
07:25 1018 30.06 847 25.01 -25.3 -13.6 75 -28.5 -19.4
07:30 1018 30.06 847 25.01 -25.2 -13.4 75 -28.4 -19.2
07:35 1018 30.06 847 25.01 -25.2 -13.3 75 -28.4 -19.1
07:40 1018 30.06 847 25.01 -25.1 -13.2 75 -28.3 -19
07:45 1018 30.06 847 25.01 -25 -12.9 75 -28.3 -18.9
07:50 1018 30.06 847 25.01 -25.1 -13.1 75 -28.4 -19.1
07:55 1018 30.06 847 25.01 -25.2 -13.3 74 -28.5 -19.4
08:00 1018 30.06 847 25.01 -25.4 -13.6 75 -28.6 -19.5
08:05 1018 30.06 847 25.01 -25.4 -13.8 75 -28.7 -19.7
08:10 1018 30.06 847 25.01 -25.5 -13.9 75 -28.7 -19.7
08:15 1018 30.06 847 25.01 -25.4 -13.8 75 -28.6 -19.5
08:20 1018 30.06 847 25.01 -25.2 -13.4 75 -28.4 -19.1
08:25 1018 30.06 847 25.01 -25.1 -13.1 75 -28.2 -18.8
08:30 1018 30.06 847 25.01 -24.9 -12.7 75 -28.1 -18.6
08:35 1018 30.06 847 25.01 -24.7 -12.4 75 -28 -18.4
08:40 1018 30.06 847 25.01 -24.5 -12.1 75 -27.8 -18.1
08:45 1018 30.06 847 25.01 -24.5 -12.1 74 -27.9 -18.1
08:50 1018 30.06 847 25.01 -24.6 -12.3 74 -28 -18.3
08:55 1018 30.06 847 25.01 -24.5 -12 74 -27.9 -18.2
09:00 1018 30.06 847 25.01 -24.5 -12.1 74 -27.9 -18.2
09:05 1018 30.06 847 25.01 -24.5 -12 73 -28 -18.3
09:10 1018 30.06 847 25.01 -24.6 -12.2 74 -28 -18.4
09:15 1018 30.06 847 25.01 -24.7 -12.4 73 -28.2 -18.7
09:20 1018 30.06 847 25.01 -24.7 -12.4 74 -28.1 -18.6
09:25 1018 30.06 847 25.01 -24.5 -12 74 -27.8 -18.1
09:30 1018 30.06 847 25.01 -24.4 -11.9 73 -27.9 -18.2
09:35 1018 30.06 847 25.01 -24.4 -11.9 73 -27.9 -18.2
09:40 1018 30.06 848 25.04 -24.4 -11.9 73 -28 -18.4
09:45 1018 30.06 848 25.04 -24.5 -12 73 -28.1 -18.6
09:50 1018 30.06 847 25.01 -24.5 -12 73 -27.9 -18.3
09:55 1018 30.06 848 25.04 -24.1 -11.4 73 -27.7 -17.9
10:00 1018 30.06 848 25.04 -24 -11.3 73 -27.6 -17.6
10:05 1019 30.09 848 25.04 -23.8 -10.8 74 -27.2 -17
10:10 1019 30.09 848 25.04 -23.3 -10 72 -27 -16.6
10:15 1019 30.09 848 25.04 -23 -9.4 72 -26.8 -16.3
10:20 1019 30.09 848 25.04 -22.9 -9.2 72 -26.6 -15.9
10:25 1019 30.09 848 25.04 -22.6 -8.6 74 -26 -14.8
10:30 1019 30.09 848 25.04 -21.8 -7.3 74 -25.3 -13.5
10:35 1019 30.09 848 25.04 -21.3 -6.3 72 -25.1 -13.1
10:40 1019 30.09 848 25.04 -20.8 -5.5 70 -25 -13
10:45 1019 30.09 848 25.04 -20.9 -5.6 71 -24.9 -12.8
10:50 1019 30.09 848 25.04 -20.8 -5.4 71 -24.8 -12.7
10:55 1019 30.09 848 25.04 -20.6 -5.1 69 -25 -13
11:00 1019 30.09 848 25.04 -20.9 -5.6 70 -25 -13.1
11:05 1019 30.09 848 25.04 -20.5 -5 73 -24.2 -11.6
11:10 1019 30.09 848 25.04 -19.8 -3.6 70 -23.9 -10.9
11:15 1019 30.09 848 25.04 -19.2 -2.5 73 -22.9 -9.2
11:20 1019 30.09 848 25.04 -18.7 -1.7 70 -22.9 -9.1
11:25 1019 30.09 848 25.04 -18.4 -1.1 67 -23.2 -9.7
11:30 1019 30.09 848 25.04 -18.8 -1.8 70 -23 -9.3
11:35 1019 30.09 848 25.04 -18.6 -1.5 68 -23.1 -9.6
11:40 1019 30.09 848 25.04 -18.4 -1.2 66 -23.3 -10
11:45 1019 30.09 848 25.04 -18.4 -1.2 71 -22.5 -8.4
11:50 1019 30.09 848 25.04 -18.1 -0.6 70 -22.4 -8.3
11:55 1019 30.09 848 25.04 -18.5 -1.3 69 -22.8 -9.1
12:00 1019 30.09 848 25.04 -19 -2.2 68 -23.4 -10.2
12:05 1019 30.09 848 25.04 -19.1 -2.4 71 -23.1 -9.6
12:10 1019 30.09 848 25.04 -18.8 -1.9 69 -23.1 -9.6
12:15 1019 30.09 848 25.04 -18.9 -2.1 70 -23.2 -9.7
12:20 1019 30.09 848 25.04 -18.7 -1.6 68 -23.2 -9.8
12:25 1019 30.09 848 25.04 -18.7 -1.7 68 -23.2 -9.8
12:30 1019 30.09 848 25.04 -18.6 -1.4 70 -22.7 -8.9
12:35 1019 30.09 848 25.04 -18.3 -1 68 -22.8 -9.1
12:40 1019 30.09 848 25.04 -18.2 -0.8 69 -22.6 -8.6
12:45 1019 30.09 848 25.04 -18.3 -1 68 -22.9 -9.2
12:50 1018 30.06 848 25.04 -18.3 -0.9 68 -22.8 -9.1
12:55 1018 30.06 848 25.04 -18 -0.3 68 -22.5 -8.6
13:00 1018 30.06 848 25.04 -17.7 0.2 69 -22.1 -7.7
13:05 1018 30.06 848 25.04 -17.4 0.7 66 -22.3 -8.1
13:10 1018 30.06 848 25.04 -17.3 0.8 68 -22 -7.6
13:15 1018 30.06 848 25.04 -17.4 0.8 65 -22.4 -8.3
13:20 1018 30.06 848 25.04 -17.5 0.5 66 -22.3 -8.2
13:25 1018 30.06 848 25.04 -17.7 0.1 66 -22.6 -8.8
13:30 1018 30.06 848 25.04 -17.9 -0.3 65 -23 -9.4
13:35 1018 30.06 848 25.04 -18.2 -0.7 67 -22.9 -9.2
13:40 1018 30.06 848 25.04 -18 -0.4 69 -22.3 -8.2
13:45 1018 30.06 847 25.01 -17.4 0.8 67 -22.1 -7.9
13:50 1018 30.06 847 25.01 -17.1 1.3 69 -21.5 -6.7
13:55 1018 30.06 847 25.01 -16.9 1.6 66 -21.8 -7.3
14:00 1018 30.06 847 25.01 -16.8 1.7 63 -22.3 -8.2
14:05 1018 30.06 847 25.01 -17.2 1.1 67 -22 -7.6
14:10 1018 30.06 847 25.01 -17.1 1.3 70 -21.3 -6.4
14:15 1018 30.06 847 25.01 -16.4 2.4 65 -21.6 -6.9
14:20 1018 30.06 847 25.01 -16.5 2.3 64 -21.7 -7.1
14:25 1018 30.06 847 25.01 -16.8 1.8 64 -22.1 -7.7
14:30 1018 30.06 847 25.01 -16.8 1.8 65 -21.9 -7.5
14:35 1018 30.06 847 25.01 -16.8 1.8 67 -21.6 -6.9
14:40 1018 30.06 847 25.01 -16 3.1 64 -21.4 -6.5
14:45 1018 30.06 847 25.01 -15.8 3.7 67 -20.6 -5.1
14:50 1018 30.06 847 25.01 -16 3.3 59 -22.2 -7.9
14:55 1018 30.06 847 25.01 -17.5 0.5 66 -22.4 -8.4
15:00 1018 30.06 847 25.01 -17.5 0.6 67 -22.3 -8.1
15:05 1018 30.06 847 25.01 -17 1.3 63 -22.5 -8.4
15:10 1018 30.06 847 25.01 -17.3 0.9 68 -21.9 -7.4
15:15 1018 30.06 847 25.01 -16.8 1.7 64 -22.1 -7.7
15:20 1018 30.06 847 25.01 -17 1.5 65 -22 -7.6
15:25 1018 30.06 847 25.01 -16.9 1.6 66 -21.9 -7.3
15:30 1018 30.06 847 25.01 -16.9 1.5 65 -22.1 -7.7
15:35 1018 30.06 847 25.01 -16.7 2 66 -21.6 -6.9
15:40 1018 30.06 847 25.01 -16.4 2.5 65 -21.5 -6.7
15:45 1018 30.06 847 25.01 -16.6 2.2 64 -21.9 -7.4
15:50 1018 30.06 847 25.01 -16.9 1.6 67 -21.7 -7.1
15:55 1018 30.06 847 25.01 -16.7 1.9 64 -22 -7.6
16:00 1018 30.06 847 25.01 -16.8 1.8 63 -22.2 -8
16:05 1018 30.06 847 25.01 -17.1 1.2 64 -22.4 -8.4
16:10 1018 30.06 847 25.01 -17.1 1.3 64 -22.4 -8.3
16:15 1018 30.06 847 25.01 -17.1 1.3 64 -22.3 -8.1
16:20 1018 30.06 847 25.01 -17.1 1.3 64 -22.3 -8.1
16:25 1018 30.06 847 25.01 -17.4 0.8 64 -22.7 -8.8
16:30 1018 30.06 847 25.01 -17.6 0.3 64 -22.9 -9.3
16:35 1018 30.06 847 25.01 -17.8 -0 66 -22.8 -9
16:40 1018 30.06 847 25.01 -17.7 0.1 64 -23.1 -9.6
16:45 1018 30.06 847 25.01 -18.1 -0.5 65 -23.1 -9.5
16:50 1018 30.06 847 25.01 -17.8 -0.1 68 -22.4 -8.3
16:55 1018 30.06 847 25.01 -17.5 0.4 63 -23 -9.4
17:00 1018 30.06 847 25.01 -17.9 -0.1 65 -23 -9.3
17:05 1018 30.06 847 25.01 -18 -0.5 65 -23.1 -9.5
17:10 1018 30.06 847 25.01 -18.1 -0.5 64 -23.3 -9.9
17:15 1018 30.06 847 25.01 -18.2 -0.7 64 -23.4 -10.1
17:20 1018 30.06 847 25.01 -18.7 -1.6 66 -23.6 -10.5
17:25 1018 30.06 847 25.01 -19.3 -2.7 69 -23.7 -10.6
17:30 1018 30.06 847 25.01 -19.7 -3.4 70 -23.8 -10.8
17:35 1018 30.06 847 25.01 -20 -3.9 71 -23.9 -11
17:40 1018 30.06 847 25.01 -20.1 -4.3 74 -23.6 -10.6
17:45 1018 30.06 847 25.01 -20.2 -4.3 75 -23.6 -10.4
17:50 1018 30.06 847 25.01 -20.4 -4.7 75 -23.7 -10.7
17:55 1018 30.06 847 25.01 -20.7 -5.2 76 -23.8 -10.9
18:00 1018 30.06 847 25.01 -20.9 -5.5 77 -23.9 -11
18:05 1018 30.06 847 25.01 -20.9 -5.7 78 -23.9 -11
18:10 1018 30.06 847 25.01 -20.9 -5.6 76 -24.1 -11.3
18:15 1018 30.06 847 25.01 -20.9 -5.6 76 -24 -11.3
18:20 1018 30.06 847 25.01 -21.2 -6.2 77 -24.3 -11.7
18:25 1018 30.06 847 25.01 -21.3 -6.3 77 -24.4 -11.9
18:30 1018 30.06 847 25.01 -21.5 -6.6 78 -24.3 -11.7
18:35 1018 30.06 847 25.01 -21.5 -6.7 78 -24.4 -11.9
18:40 1018 30.06 848 25.04 -21.7 -7.1 78 -24.6 -12.2
18:45 1018 30.06 847 25.01 -21.8 -7.2 78 -24.6 -12.3
18:50 1018 30.06 847 25.01 -21.8 -7.2 78 -24.6 -12.3
18:55 1018 30.06 847 25.01 -22 -7.6 78 -24.9 -12.8
19:00 1018 30.06 848 25.04 -22.2 -8 78 -25.1 -13.2
19:05 1018 30.06 848 25.04 -22.5 -8.5 77 -25.5 -13.8
19:10 1018 30.06 848 25.04 -22.8 -9 78 -25.6 -14.1
19:15 1018 30.06 848 25.04 -22.7 -8.9 78 -25.6 -14.1
19:20 1018 30.06 848 25.04 -22.6 -8.7 78 -25.5 -14
19:25 1018 30.06 848 25.04 -22.5 -8.5 77 -25.5 -13.9
19:30 1018 30.06 848 25.04 -22.5 -8.4 76 -25.6 -14
19:35 1018 30.06 848 25.04 -22.5 -8.5 77 -25.6 -14
19:40 1018 30.06 848 25.04 -22.5 -8.5 77 -25.6 -14
19:45 1018 30.06 848 25.04 -22.6 -8.6 77 -25.5 -14
19:50 1018 30.06 848 25.04 -22.7 -8.8 77 -25.6 -14.1
19:55 1019 30.09 848 25.04 -22.8 -9 77 -25.8 -14.4
20:00 1019 30.09 848 25.04 -22.9 -9.2 78 -25.7 -14.3
20:05 1019 30.09 848 25.04 -22.9 -9.3 78 -25.8 -14.4
20:10 1019 30.09 848 25.04 -22.9 -9.2 77 -25.8 -14.5
20:15 1019 30.09 848 25.04 -22.9 -9.3 78 -25.8 -14.5
20:20 1019 30.09 848 25.04 -22.9 -9.1 77 -25.8 -14.5
20:25 1019 30.09 848 25.04 -22.6 -8.7 76 -25.7 -14.3
20:30 1019 30.09 848 25.04 -22.8 -9 77 -25.8 -14.5
20:35 1019 30.09 848 25.04 -22.9 -9.2 78 -25.8 -14.5
20:40 1019 30.09 848 25.04 -22.8 -9 77 -25.7 -14.3
20:45 1019 30.09 848 25.04 -22.8 -9.1 76 -26 -14.7
20:50 1019 30.09 848 25.04 -23 -9.5 76 -26.2 -15.2
20:55 1019 30.09 848 25.04 -23.3 -9.9 78 -26.2 -15.1
21:00 1019 30.09 848 25.04 -23.3 -9.9 77 -26.3 -15.3
21:05 1019 30.09 848 25.04 -23.1 -9.5 77 -26 -14.8
21:10 1019 30.09 848 25.04 -23.1 -9.6 75 -26.4 -15.5
21:15 1019 30.09 848 25.04 -23.5 -10.4 77 -26.5 -15.7
21:20 1019 30.09 848 25.04 -23.5 -10.3 78 -26.3 -15.3
21:25 1019 30.09 849 25.07 -23.3 -9.9 78 -26.1 -15
21:30 1019 30.09 849 25.07 -23.1 -9.5 79 -25.8 -14.5
21:35 1019 30.09 849 25.07 -23 -9.4 77 -26 -14.9
21:40 1019 30.09 849 25.07 -23.2 -9.7 78 -26.1 -14.9
21:45 1019 30.09 849 25.07 -22.9 -9.2 76 -26.1 -14.9
21:50 1019 30.09 849 25.07 -23.1 -9.5 75 -26.4 -15.6
21:55 1020 30.12 849 25.07 -23.3 -9.9 74 -26.7 -16.1
22:00 1020 30.12 849 25.07 -23.5 -10.3 75 -26.8 -16.3
22:05 1020 30.12 849 25.07 -23.5 -10.3 77 -26.5 -15.7
22:10 1020 30.12 849 25.07 -23.4 -10.1 75 -26.7 -16
22:15 1020 30.12 849 25.07 -23.7 -10.6 76 -26.8 -16.3
22:20 1020 30.12 849 25.07 -23.8 -10.9 78 -26.7 -16.1
22:25 1020 30.12 849 25.07 -23.6 -10.5 77 -26.5 -15.8
22:30 1020 30.12 849 25.07 -23.6 -10.5 78 -26.4 -15.6
22:35 1020 30.12 849 25.07 -23.4 -10.1 78 -26.2 -15.2
22:40 1020 30.12 849 25.07 -23.1 -9.5 77 -26.1 -14.9
22:45 1020 30.12 849 25.07 -23.1 -9.6 76 -26.3 -15.4
22:50 1020 30.12 849 25.07 -23.3 -9.9 76 -26.4 -15.5
22:55 1020 30.12 849 25.07 -23.2 -9.7 78 -26.1 -14.9
23:00 1020 30.12 849 25.07 -23 -9.3 78 -25.9 -14.6
23:05 1020 30.12 849 25.07 -23 -9.3 77 -26 -14.8
23:10 1020 30.12 849 25.07 -23 -9.4 75 -26.2 -15.2
23:15 1020 30.12 849 25.07 -23.2 -9.7 76 -26.3 -15.4
23:20 1020 30.12 849 25.07 -23.3 -9.9 78 -26.1 -14.9
23:25 1020 30.12 849 25.07 -23.2 -9.7 76 -26.3 -15.3
23:30 1020 30.12 849 25.07 -23.3 -10 77 -26.3 -15.3
23:35 1020 30.12 849 25.07 -23.5 -10.2 75 -26.7 -16
23:40 1020 30.12 849 25.07 -24 -11.3 76 -27.1 -16.8
23:45 1020 30.12 849 25.07 -24.2 -11.6 77 -27.1 -16.8
23:50 1020 30.12 849 25.07 -24.2 -11.6 78 -27.1 -16.7
23:55 1020 30.12 849 25.07 -24.1 -11.5 78 -27 -16.6
24:00 1020 30.12 849 25.07 -24.1 -11.3 79 -26.8 -16.2